createdAt,value
2022-10-07T00:01:03.658Z,102281.38
2022-10-07T00:03:31.532Z,102257.53
2022-10-07T00:06:13.603Z,102278.84
2022-10-07T00:08:44.084Z,102270.13
2022-10-07T00:11:26.188Z,102277.41
2022-10-07T00:13:59.176Z,102252.72
2022-10-07T00:16:36.845Z,102267.50
2022-10-07T00:19:08.671Z,102265.69
2022-10-07T00:21:37.733Z,102263.88
2022-10-07T00:24:07.176Z,102261.34
2022-10-07T00:26:36.243Z,102259.97
2022-10-07T00:29:06.292Z,102256.66
2022-10-07T00:31:36.764Z,102264.84
2022-10-07T00:34:05.367Z,102257.38
2022-10-07T00:36:35.814Z,102253.31
2022-10-07T00:39:08.142Z,102243.88
2022-10-07T00:41:45.232Z,102246.78
2022-10-07T00:44:36.086Z,102246.38
2022-10-07T00:47:28.149Z,102244.16
2022-10-07T00:50:08.041Z,102221.59
2022-10-07T00:52:59.383Z,102231.50
2022-10-07T00:55:30.347Z,102216.59
2022-10-07T00:58:02.145Z,102233.38
2022-10-07T01:00:30.215Z,102224.75
2022-10-07T01:02:57.250Z,102215.97
2022-10-07T01:05:25.011Z,102223.06
2022-10-07T01:07:54.890Z,102208.25
2022-10-07T01:10:31.917Z,102210.38
2022-10-07T01:13:09.107Z,102218.28
2022-10-07T01:16:08.154Z,102208.72
2022-10-07T01:18:49.530Z,102197.44
2022-10-07T01:21:31.090Z,102206.16
2022-10-07T01:24:11.208Z,102203.59
2022-10-07T01:26:58.561Z,102192.00
2022-10-07T01:29:53.588Z,102182.63
2022-10-07T01:32:54.110Z,102189.66
2022-10-07T01:35:28.200Z,102182.00
2022-10-07T01:38:00.560Z,102170.56
2022-10-07T01:40:37.371Z,102168.91
2022-10-07T01:43:06.533Z,102175.81
2022-10-07T01:45:38.046Z,102164.44
2022-10-07T01:48:05.116Z,102158.28
2022-10-07T01:50:33.989Z,102152.28
2022-10-07T01:53:20.283Z,102170.75
2022-10-07T01:56:26.836Z,102145.34
2022-10-07T01:59:21.299Z,102159.31
2022-10-07T02:01:57.704Z,102164.69
2022-10-07T02:04:59.148Z,102153.94
2022-10-07T02:07:45.351Z,102157.56
2022-10-07T02:10:31.870Z,102141.84
2022-10-07T02:13:56.298Z,102140.22
2022-10-07T02:16:39.802Z,102141.13
2022-10-07T02:19:17.564Z,102130.63
2022-10-07T02:21:47.039Z,102144.94
2022-10-07T02:24:15.800Z,102128.13
2022-10-07T02:26:45.865Z,102121.84
2022-10-07T02:29:16.344Z,102116.69
2022-10-07T02:31:46.111Z,102129.06
2022-10-07T02:34:20.178Z,102114.00
2022-10-07T02:37:20.108Z,102128.25
2022-10-07T02:39:48.279Z,102115.97
2022-10-07T02:42:33.558Z,102110.81
2022-10-07T02:45:15.764Z,102112.50
2022-10-07T02:47:55.761Z,102109.16
2022-10-07T02:50:27.779Z,102098.59
2022-10-07T02:52:56.300Z,102101.09
2022-10-07T02:55:27.661Z,102097.78
2022-10-07T02:57:59.435Z,102110.03
2022-10-07T03:00:30.321Z,102099.44
2022-10-07T03:03:02.649Z,102104.00
2022-10-07T03:05:42.188Z,102096.66
2022-10-07T03:08:11.242Z,102087.16
2022-10-07T03:10:40.727Z,102089.84
2022-10-07T03:13:09.244Z,102081.28
2022-10-07T03:15:42.654Z,102077.97
2022-10-07T03:18:26.619Z,102072.72
2022-10-07T03:21:01.126Z,102072.06
2022-10-07T03:23:29.598Z,102082.63
2022-10-07T03:25:58.490Z,102091.59
2022-10-07T03:28:29.809Z,102081.91
2022-10-07T03:31:08.697Z,102085.28
2022-10-07T03:33:38.685Z,102074.59
2022-10-07T03:36:08.406Z,102073.53
2022-10-07T03:38:36.574Z,102069.00
2022-10-07T03:41:04.915Z,102056.91
2022-10-07T03:43:33.647Z,102064.84
2022-10-07T03:46:02.509Z,102062.28
2022-10-07T03:48:31.799Z,102056.09
2022-10-07T03:50:59.498Z,102064.03
2022-10-07T03:53:29.783Z,102050.13
2022-10-07T03:55:58.677Z,102049.41
2022-10-07T03:58:25.782Z,102047.81
2022-10-07T04:00:52.776Z,102048.63
2022-10-07T04:03:20.179Z,102053.84
2022-10-07T04:06:02.411Z,102047.34
2022-10-07T04:08:33.183Z,102039.16
2022-10-07T04:11:03.637Z,102025.94
2022-10-07T04:13:31.865Z,102029.16
2022-10-07T04:15:59.543Z,102024.00
2022-10-07T04:18:27.199Z,102026.69
2022-10-07T04:20:55.045Z,102029.50
2022-10-07T04:23:22.376Z,102026.16
2022-10-07T04:25:50.257Z,102020.94
2022-10-07T04:28:24.242Z,102032.53
2022-10-07T04:30:56.259Z,102015.72
2022-10-07T04:33:30.340Z,102019.34
2022-10-07T04:36:12.833Z,101997.38
2022-10-07T04:38:58.764Z,102017.69
2022-10-07T04:41:30.876Z,102016.72
2022-10-07T04:43:58.253Z,102024.72
2022-10-07T04:46:28.817Z,102024.63
2022-10-07T04:49:05.475Z,102015.44
2022-10-07T04:51:33.086Z,102018.13
2022-10-07T04:54:01.249Z,102019.56
2022-10-07T04:56:34.200Z,102018.50
2022-10-07T04:59:04.231Z,102013.91
2022-10-07T05:01:31.436Z,102011.09
2022-10-07T05:03:59.603Z,102012.84
2022-10-07T05:06:27.436Z,102013.84
2022-10-07T05:08:54.570Z,102015.72
2022-10-07T05:11:23.140Z,102003.47
2022-10-07T05:14:02.078Z,102002.75
2022-10-07T05:16:30.998Z,102010.78
2022-10-07T05:18:58.725Z,102002.88
2022-10-07T05:21:25.813Z,102008.25
2022-10-07T05:23:52.853Z,102009.13
2022-10-07T05:26:25.503Z,101998.53
2022-10-07T05:28:57.500Z,102006.59
2022-10-07T05:31:31.230Z,102004.72
2022-10-07T05:34:02.907Z,102000.91
2022-10-07T05:36:30.078Z,101999.19
2022-10-07T05:38:59.276Z,102004.41
2022-10-07T05:41:44.991Z,101985.84
2022-10-07T05:44:14.371Z,101989.34
2022-10-07T05:46:42.525Z,101990.28
2022-10-07T05:49:10.067Z,101989.25
2022-10-07T05:51:37.177Z,101992.75
2022-10-07T05:54:04.713Z,101989.94
2022-10-07T05:56:39.005Z,101983.63
2022-10-07T05:59:07.150Z,101970.22
2022-10-07T06:01:35.013Z,101979.75
2022-10-07T06:04:08.144Z,101985.00
2022-10-07T06:06:38.682Z,101972.44
2022-10-07T06:09:27.338Z,101968.59
2022-10-07T06:12:33.674Z,101964.97
2022-10-07T06:15:05.517Z,101966.41
2022-10-07T06:17:32.918Z,101974.09
2022-10-07T06:20:02.381Z,101977.09
2022-10-07T06:22:29.677Z,101965.28
2022-10-07T06:24:58.813Z,101976.28
2022-10-07T06:27:26.391Z,101967.63
2022-10-07T06:29:54.411Z,101968.34
2022-10-07T06:32:21.968Z,101965.19
2022-10-07T06:34:49.654Z,101958.63
2022-10-07T06:37:16.858Z,101961.75
2022-10-07T06:39:44.793Z,101970.09
2022-10-07T06:42:12.665Z,101968.66
2022-10-07T06:44:58.343Z,101956.66
2022-10-07T06:47:25.570Z,101962.97
2022-10-07T06:49:52.503Z,101965.03
2022-10-07T06:52:19.719Z,101957.88
2022-10-07T06:54:47.359Z,101969.53
2022-10-07T06:57:40.388Z,101965.84
2022-10-07T07:00:01.655Z,101966.78
2022-10-07T07:02:31.125Z,101970.59
2022-10-07T07:04:59.760Z,101973.28
2022-10-07T07:07:27.284Z,101966.16
2022-10-07T07:09:54.722Z,101968.13
2022-10-07T07:12:25.194Z,101962.22
2022-10-07T07:14:53.223Z,101967.06
2022-10-07T07:17:21.326Z,101970.31
2022-10-07T07:19:48.282Z,101970.72
2022-10-07T07:22:16.255Z,101966.97
2022-10-07T07:24:43.826Z,101973.44
2022-10-07T07:27:14.381Z,101977.22
2022-10-07T07:29:41.592Z,101965.69
2022-10-07T07:32:08.534Z,101964.06
2022-10-07T07:34:39.239Z,101958.09
2022-10-07T07:37:12.901Z,101963.56
2022-10-07T07:39:45.254Z,101960.00
2022-10-07T07:42:15.388Z,101959.25
2022-10-07T07:44:43.235Z,101958.44
2022-10-07T07:47:12.784Z,101966.63
2022-10-07T07:49:40.035Z,101950.63
2022-10-07T07:52:10.433Z,101950.41
2022-10-07T07:54:45.142Z,101951.00
2022-10-07T07:57:12.452Z,101950.72
2022-10-07T07:59:39.589Z,101951.22
2022-10-07T08:02:10.686Z,101941.59
2022-10-07T08:04:38.977Z,101951.03
2022-10-07T08:07:07.526Z,101943.56
2022-10-07T08:09:34.609Z,101937.84
2022-10-07T08:12:02.155Z,101945.44
2022-10-07T08:14:30.151Z,101935.63
2022-10-07T08:16:59.120Z,101937.03
2022-10-07T08:19:29.398Z,101925.56
2022-10-07T08:21:58.153Z,101927.81
2022-10-07T08:24:27.831Z,101926.06
2022-10-07T08:26:54.825Z,101926.25
2022-10-07T08:29:22.776Z,101920.72
2022-10-07T08:31:50.018Z,101922.41
2022-10-07T08:34:17.165Z,101915.31
2022-10-07T08:36:47.287Z,101915.44
2022-10-07T08:39:15.546Z,101909.31
2022-10-07T08:42:42.824Z,101908.03
2022-10-07T08:45:31.731Z,101900.97
2022-10-07T08:48:07.550Z,101901.75
2022-10-07T08:51:07.211Z,101897.63
2022-10-07T08:53:37.639Z,101905.78
2022-10-07T08:56:23.305Z,101895.09
2022-10-07T08:59:32.128Z,101894.56
2022-10-07T09:02:23.780Z,101887.38
2022-10-07T09:04:56.658Z,101894.19
2022-10-07T09:07:57.429Z,101873.44
2022-10-07T09:10:34.740Z,101882.72
2022-10-07T09:13:18.518Z,101868.75
2022-10-07T09:16:12.154Z,101877.19
2022-10-07T09:18:59.815Z,101874.81
2022-10-07T09:21:46.125Z,101870.94
2022-10-07T09:24:17.904Z,101855.88
2022-10-07T09:26:44.885Z,101857.22
2022-10-07T09:29:12.066Z,101864.41
2022-10-07T09:31:40.069Z,101847.31
2022-10-07T09:34:22.150Z,101848.72
2022-10-07T09:37:16.730Z,101840.75
2022-10-07T09:39:45.794Z,101846.41
2022-10-07T09:42:43.110Z,101838.59
2022-10-07T09:45:29.022Z,101832.13
2022-10-07T09:48:04.501Z,101825.06
2022-10-07T09:50:43.558Z,101823.03
2022-10-07T09:53:28.014Z,101827.47
2022-10-07T09:55:55.589Z,101813.13
2022-10-07T09:58:30.546Z,101817.66
2022-10-07T10:01:01.327Z,101816.41
2022-10-07T10:03:37.007Z,101814.28
2022-10-07T10:06:09.371Z,101808.81
2022-10-07T10:08:41.856Z,101817.16
2022-10-07T10:11:21.026Z,101813.44
2022-10-07T10:13:50.413Z,101802.97
2022-10-07T10:16:37.831Z,101810.72
2022-10-07T10:19:27.383Z,101812.69
2022-10-07T10:21:56.903Z,101807.28
2022-10-07T10:24:44.305Z,101812.28
2022-10-07T10:27:29.710Z,101786.50
2022-10-07T10:30:06.622Z,101789.66
2022-10-07T10:33:25.755Z,101790.13
2022-10-07T10:36:19.201Z,101785.72
2022-10-07T10:39:04.434Z,101775.06
2022-10-07T10:42:05.641Z,101774.75
2022-10-07T10:45:14.196Z,101771.91
2022-10-07T10:47:54.107Z,101759.69
2022-10-07T10:50:35.505Z,101755.69
2022-10-07T10:53:20.334Z,101748.66
2022-10-07T10:56:16.053Z,101741.88
2022-10-07T10:59:12.704Z,101739.47
2022-10-07T11:01:43.125Z,101737.91
2022-10-07T11:04:38.585Z,101730.84
2022-10-07T11:07:30.707Z,101723.38
2022-10-07T11:10:04.775Z,101729.53
2022-10-07T11:12:39.479Z,101723.88
2022-10-07T11:15:34.918Z,101709.19
2022-10-07T11:18:10.443Z,101703.97
2022-10-07T11:20:47.974Z,101704.53
2022-10-07T11:23:37.906Z,101694.78
2022-10-07T11:26:19.009Z,101686.31
2022-10-07T11:28:47.219Z,101682.47
2022-10-07T11:31:35.397Z,101678.00
2022-10-07T11:34:40.412Z,101671.66
2022-10-07T11:37:21.842Z,101662.84
2022-10-07T11:39:49.869Z,101661.63
2022-10-07T11:42:24.509Z,101667.59
2022-10-07T11:45:08.924Z,101659.38
2022-10-07T11:47:45.472Z,101651.69
2022-10-07T11:50:31.654Z,101631.94
2022-10-07T11:53:25.878Z,101646.66
2022-10-07T11:56:06.928Z,101640.00
2022-10-07T11:58:37.891Z,101639.00
2022-10-07T12:01:28.556Z,101638.75
2022-10-07T12:04:17.179Z,101629.56
2022-10-07T12:07:40.668Z,101624.38
2022-10-07T12:10:41.181Z,101615.94
2022-10-07T12:13:11.140Z,101617.03
2022-10-07T12:15:45.046Z,101609.13
2022-10-07T12:18:28.596Z,101590.31
2022-10-07T12:21:03.850Z,101599.97
2022-10-07T12:23:36.707Z,101583.84
2022-10-07T12:26:33.071Z,101594.13
2022-10-07T12:29:00.251Z,101574.06
2022-10-07T12:31:33.362Z,101585.38
2022-10-07T12:34:06.069Z,101584.22
2022-10-07T12:36:33.486Z,101576.53
2022-10-07T12:39:03.178Z,101573.31
2022-10-07T12:41:40.138Z,101571.69
2022-10-07T12:44:43.946Z,101552.63
2022-10-07T12:47:22.634Z,101559.69
2022-10-07T12:50:01.250Z,101553.19
2022-10-07T12:52:55.448Z,101537.75
2022-10-07T12:55:33.654Z,101558.00
2022-10-07T12:58:21.785Z,101548.06
2022-10-07T13:01:42.276Z,101541.41
2022-10-07T13:04:42.271Z,101537.31
2022-10-07T13:07:43.656Z,101543.19
2022-10-07T13:10:53.468Z,101533.00
2022-10-07T13:13:41.007Z,101528.72
2022-10-07T13:16:32.059Z,101530.75
2022-10-07T13:19:28.061Z,101524.31
2022-10-07T13:22:12.860Z,101522.81
2022-10-07T13:24:46.975Z,101510.25
2022-10-07T13:27:34.718Z,101505.84
2022-10-07T13:30:04.695Z,101503.34
2022-10-07T13:32:34.244Z,101497.25
2022-10-07T13:35:30.049Z,101498.19
2022-10-07T13:37:57.120Z,101483.47
2022-10-07T13:40:35.240Z,101496.50
2022-10-07T13:43:07.025Z,101483.09
2022-10-07T13:45:46.031Z,101473.31
2022-10-07T13:48:19.338Z,101475.41
2022-10-07T13:50:48.216Z,101474.88
2022-10-07T13:53:30.797Z,101474.88
2022-10-07T13:56:40.680Z,101467.22
2022-10-07T13:59:18.078Z,101464.13
2022-10-07T14:01:50.090Z,101456.41
2022-10-07T14:04:27.023Z,101461.88
2022-10-07T14:07:13.479Z,101457.22
2022-10-07T14:09:50.780Z,101456.38
2022-10-07T14:12:26.177Z,101441.47
2022-10-07T14:15:00.546Z,101431.56
2022-10-07T14:17:47.521Z,101439.94
2022-10-07T14:20:20.449Z,101433.44
2022-10-07T14:22:53.358Z,101424.88
2022-10-07T14:25:28.701Z,101411.47
2022-10-07T14:27:58.817Z,101423.59
2022-10-07T14:30:56.297Z,101416.13
2022-10-07T14:34:08.806Z,101404.09
2022-10-07T14:36:36.296Z,101406.44
2022-10-07T14:39:32.866Z,101405.56
2022-10-07T14:41:59.995Z,101395.16
2022-10-07T14:44:28.798Z,101397.03
2022-10-07T14:47:28.770Z,101389.63
2022-10-07T14:49:58.236Z,101390.47
2022-10-07T14:52:42.058Z,101395.38
2022-10-07T14:55:21.158Z,101388.53
2022-10-07T14:57:48.290Z,101386.75
2022-10-07T15:00:20.295Z,101371.84
2022-10-07T15:02:50.353Z,101376.28
2022-10-07T15:05:18.768Z,101377.84
2022-10-07T15:07:46.364Z,101364.66
2022-10-07T15:10:16.548Z,101367.22
2022-10-07T15:12:44.465Z,101374.28
2022-10-07T15:15:13.613Z,101368.94
2022-10-07T15:17:42.069Z,101361.91
2022-10-07T15:20:12.600Z,101367.88
2022-10-07T15:22:40.062Z,101358.78
2022-10-07T15:25:09.343Z,101351.06
2022-10-07T15:27:37.644Z,101358.91
2022-10-07T15:30:08.993Z,101344.41
2022-10-07T15:32:36.252Z,101347.97
2022-10-07T15:35:03.414Z,101348.69
2022-10-07T15:37:32.283Z,101347.44
2022-10-07T15:39:59.313Z,101343.78
2022-10-07T15:42:26.847Z,101338.19
2022-10-07T15:44:54.148Z,101337.91
2022-10-07T15:47:21.417Z,101330.09
2022-10-07T15:49:49.571Z,101335.66
2022-10-07T15:52:16.931Z,101326.31
2022-10-07T15:54:46.231Z,101326.97
2022-10-07T15:57:14.314Z,101326.03
2022-10-07T15:59:42.180Z,101329.97
2022-10-07T16:02:16.305Z,101326.44
2022-10-07T16:04:45.016Z,101324.16
2022-10-07T16:07:12.059Z,101321.06
2022-10-07T16:09:39.324Z,101323.94
2022-10-07T16:12:07.267Z,101324.69
2022-10-07T16:14:34.631Z,101323.13
2022-10-07T16:17:01.737Z,101323.31
2022-10-07T16:19:28.771Z,101315.31
2022-10-07T16:21:55.717Z,101312.19
2022-10-07T16:24:23.476Z,101315.75
2022-10-07T16:26:51.029Z,101321.09
2022-10-07T16:29:40.411Z,101319.84
2022-10-07T16:32:12.769Z,101317.13
2022-10-07T16:34:43.398Z,101312.28
2022-10-07T16:37:11.914Z,101310.84
2022-10-07T16:39:38.813Z,101313.16
2022-10-07T16:42:06.455Z,101306.00
2022-10-07T16:44:33.453Z,101304.44
2022-10-07T16:47:01.147Z,101306.88
2022-10-07T16:49:30.148Z,101311.38
2022-10-07T16:51:58.200Z,101291.75
2022-10-07T16:54:26.056Z,101302.63
2022-10-07T16:56:53.449Z,101290.78
2022-10-07T16:59:24.221Z,101298.50
2022-10-07T17:01:55.382Z,101309.25
2022-10-07T17:04:23.165Z,101314.72
2022-10-07T17:06:50.422Z,101306.56
2022-10-07T17:09:18.342Z,101307.25
2022-10-07T17:11:45.927Z,101302.94
2022-10-07T17:14:19.654Z,101309.38
2022-10-07T17:16:53.787Z,101313.09
2022-10-07T17:19:24.984Z,101311.06
2022-10-07T17:21:53.863Z,101309.06
2022-10-07T17:24:22.752Z,101306.63
2022-10-07T17:26:50.529Z,101310.59
2022-10-07T17:29:20.697Z,101307.72
2022-10-07T17:31:50.567Z,101295.56
2022-10-07T17:34:19.960Z,101301.69
2022-10-07T17:36:47.989Z,101300.91
2022-10-07T17:39:15.906Z,101304.28
2022-10-07T17:41:43.114Z,101301.41
2022-10-07T17:44:12.159Z,101306.66
2022-10-07T17:46:40.961Z,101302.31
2022-10-07T17:49:13.297Z,101295.97
2022-10-07T17:51:42.565Z,101297.66
2022-10-07T17:54:13.288Z,101293.72
2022-10-07T17:56:40.517Z,101300.28
2022-10-07T17:59:07.603Z,101296.41
2022-10-07T18:01:35.798Z,101290.78
2022-10-07T18:04:07.251Z,101290.56
2022-10-07T18:06:36.800Z,101286.28
2022-10-07T18:09:09.146Z,101279.97
2022-10-07T18:11:55.168Z,101286.72
2022-10-07T18:14:41.502Z,101296.25
2022-10-07T18:17:10.290Z,101288.59
2022-10-07T18:19:39.539Z,101294.28
2022-10-07T18:22:07.179Z,101290.53
2022-10-07T18:24:34.261Z,101283.19
2022-10-07T18:27:01.770Z,101277.69
2022-10-07T18:29:37.415Z,101276.38
2022-10-07T18:32:08.104Z,101273.28
2022-10-07T18:34:35.454Z,101272.81
2022-10-07T18:37:02.662Z,101268.50
2022-10-07T18:39:29.975Z,101256.94
2022-10-07T18:41:58.241Z,101261.50
2022-10-07T18:44:25.770Z,101267.31
2022-10-07T18:46:53.216Z,101272.28
2022-10-07T18:49:20.200Z,101259.94
2022-10-07T18:51:50.266Z,101262.94
2022-10-07T18:54:18.632Z,101250.16
2022-10-07T18:56:47.936Z,101255.97
2022-10-07T18:59:15.234Z,101241.63
2022-10-07T19:01:44.383Z,101247.56
2022-10-07T19:04:14.850Z,101249.03
2022-10-07T19:06:44.616Z,101257.44
2022-10-07T19:09:15.984Z,101249.41
2022-10-07T19:11:42.925Z,101245.13
2022-10-07T19:14:10.775Z,101244.66
2022-10-07T19:16:43.643Z,101246.25
2022-10-07T19:19:13.693Z,101243.97
2022-10-07T19:21:40.801Z,101233.97
2022-10-07T19:24:08.056Z,101239.41
2022-10-07T19:26:42.701Z,101239.03
2022-10-07T19:29:10.822Z,101239.63
2022-10-07T19:31:41.773Z,101234.94
2022-10-07T19:34:22.115Z,101232.63
2022-10-07T19:36:50.221Z,101236.31
2022-10-07T19:39:22.251Z,101230.06
2022-10-07T19:41:50.911Z,101232.41
2022-10-07T19:44:18.619Z,101235.75
2022-10-07T19:46:51.537Z,101220.47
2022-10-07T19:49:18.666Z,101230.31
2022-10-07T19:51:45.567Z,101236.84
2022-10-07T19:54:13.083Z,101217.41
2022-10-07T19:56:41.109Z,101226.50
2022-10-07T19:59:11.539Z,101231.41
2022-10-07T20:01:42.120Z,101225.53
2022-10-07T20:04:14.075Z,101217.16
2022-10-07T20:06:41.811Z,101214.34
2022-10-07T20:09:13.123Z,101207.94
2022-10-07T20:11:40.357Z,101207.56
2022-10-07T20:14:07.751Z,101205.13
2022-10-07T20:16:36.527Z,101204.59
2022-10-07T20:19:07.024Z,101207.31
2022-10-07T20:21:37.064Z,101211.75
2022-10-07T20:24:06.371Z,101209.88
2022-10-07T20:26:36.961Z,101205.97
2022-10-07T20:29:06.501Z,101209.16
2022-10-07T20:31:36.913Z,101206.97
2022-10-07T20:34:04.511Z,101205.72
2022-10-07T20:36:34.792Z,101204.00
2022-10-07T20:39:25.598Z,101206.47
2022-10-07T20:42:12.870Z,101205.50
2022-10-07T20:44:40.026Z,101191.00
2022-10-07T20:47:09.524Z,101187.31
2022-10-07T20:49:38.885Z,101204.25
2022-10-07T20:52:10.963Z,101199.72
2022-10-07T20:54:37.948Z,101190.84
2022-10-07T20:57:05.969Z,101201.19
2022-10-07T20:59:33.462Z,101205.50
2022-10-07T21:02:03.880Z,101200.09
2022-10-07T21:04:33.522Z,101190.88
2022-10-07T21:07:01.601Z,101196.28
2022-10-07T21:09:28.843Z,101199.09
2022-10-07T21:11:57.878Z,101192.97
2022-10-07T21:14:24.842Z,101189.50
2022-10-07T21:16:53.362Z,101193.19
2022-10-07T21:19:20.571Z,101183.63
2022-10-07T21:21:47.462Z,101186.09
2022-10-07T21:24:14.609Z,101187.44
2022-10-07T21:26:41.650Z,101188.63
2022-10-07T21:29:11.351Z,101178.31
2022-10-07T21:31:38.352Z,101183.97
2022-10-07T21:34:07.987Z,101177.94
2022-10-07T21:36:38.962Z,101175.38
2022-10-07T21:39:07.160Z,101169.97
2022-10-07T21:41:37.482Z,101172.31
2022-10-07T21:44:11.509Z,101158.53
2022-10-07T21:46:42.085Z,101163.56
2022-10-07T21:49:09.235Z,101161.13
2022-10-07T21:51:36.230Z,101154.22
2022-10-07T21:54:04.159Z,101151.66
2022-10-07T21:56:32.833Z,101157.06
2022-10-07T21:59:04.259Z,101139.75
2022-10-07T22:01:32.387Z,101147.13
2022-10-07T22:04:03.370Z,101144.16
2022-10-07T22:06:50.532Z,101140.47
2022-10-07T22:09:20.844Z,101140.94
2022-10-07T22:11:48.728Z,101142.31
2022-10-07T22:14:16.512Z,101135.03
2022-10-07T22:16:44.834Z,101133.88
2022-10-07T22:19:12.123Z,101134.22
2022-10-07T22:21:41.350Z,101124.16
2022-10-07T22:24:09.052Z,101115.66
2022-10-07T22:26:45.755Z,101122.41
2022-10-07T22:29:16.881Z,101121.88
2022-10-07T22:31:45.180Z,101116.97
2022-10-07T22:34:31.019Z,101112.03
2022-10-07T22:36:58.263Z,101107.84
2022-10-07T22:39:26.452Z,101105.28
2022-10-07T22:41:53.931Z,101101.69
2022-10-07T22:44:20.891Z,101106.13
2022-10-07T22:46:47.850Z,101099.00
2022-10-07T22:49:15.066Z,101098.91
2022-10-07T22:51:42.727Z,101096.22
2022-10-07T22:54:12.771Z,101092.63
2022-10-07T22:56:40.078Z,101081.22
2022-10-07T22:59:08.613Z,101084.78
2022-10-07T23:01:36.567Z,101088.56
2022-10-07T23:04:04.540Z,101075.41
2022-10-07T23:06:34.546Z,101080.09
2022-10-07T23:09:03.284Z,101075.88
2022-10-07T23:11:30.854Z,101084.97
2022-10-07T23:13:57.896Z,101081.28
2022-10-07T23:16:29.457Z,101080.81
2022-10-07T23:18:58.291Z,101070.78
2022-10-07T23:21:27.790Z,101077.75
2022-10-07T23:24:07.223Z,101068.94
2022-10-07T23:26:35.995Z,101079.50
2022-10-07T23:29:04.075Z,101071.28
2022-10-07T23:31:32.655Z,101072.13
2022-10-07T23:34:01.557Z,101070.28
2022-10-07T23:36:29.510Z,101060.25
2022-10-07T23:38:58.795Z,101053.88
2022-10-07T23:41:29.442Z,101055.81
2022-10-07T23:43:58.882Z,101046.00
2022-10-07T23:46:28.305Z,101054.97
2022-10-07T23:48:58.538Z,101053.25
2022-10-07T23:51:27.912Z,101045.50
2022-10-07T23:54:02.101Z,101042.69
2022-10-07T23:56:30.038Z,101038.91
2022-10-07T23:58:57.527Z,101043.31
